Time;durP1;ratioP1;P1;durP2;ratioP2;P2;SDS_P1;SDS_P2;PMS_P1;PMS_P2;Temp;Humidity;BMP_temperature;BMP_pressure;BME280_temperature;BME280_humidity;BME280_pressure;Samples;Min_cycle;Max_cycle;Signal;HPM_P1;HPM_P2
2022/02/10 00:18:47;;;;;;;14.00;8.43;;;;;;;-139.48;100.00;61774.03;5032635;28;20536;-74
2022/02/10 00:22:18;;;;;;;20.83;9.95;;;;;;;-139.48;100.00;61774.03;5031814;28;20076;-74
2022/02/10 00:36:37;;;;;;;12.38;7.07;;;;;;;-139.48;100.00;61774.03;5032440;28;20057;-74
2022/02/10 00:39:53;;;;;;;13.85;7.40;;;;;;;-139.48;100.00;61774.03;5031574;28;20064;-74
2022/02/10 00:42:37;;;;;;;11.65;8.00;;;;;;;-139.48;100.00;61774.03;5032549;28;20106;-74
2022/02/10 00:45:22;;;;;;;15.85;7.80;;;;;;;-139.48;100.00;61774.03;5035300;28;20500;-74
2022/02/10 00:48:08;;;;;;;14.05;7.68;;;;;;;-139.48;100.00;61774.03;5035252;28;20053;-74
2022/02/10 00:50:53;;;;;;;13.27;7.50;;;;;;;-139.48;100.00;61774.03;5036152;28;20396;-74
2022/02/10 00:53:40;;;;;;;14.02;9.05;;;;;;;-139.48;100.00;61774.03;5036145;28;20500;-74
2022/02/10 00:56:24;;;;;;;19.77;11.07;;;;;;;-139.48;100.00;61774.03;5021137;28;20559;-74
2022/02/10 01:24:26;;;;;;;12.48;8.23;;;;;;;-139.48;100.00;61774.03;5035430;28;20417;-74
2022/02/10 01:29:44;;;;;;;19.55;11.57;;;;;;;-139.48;100.00;61774.03;5035204;28;20576;-74
2022/02/10 01:32:28;;;;;;;18.17;10.00;;;;;;;-139.48;100.00;61774.03;5035158;28;20087;-74
2022/02/10 01:35:17;;;;;;;16.23;9.68;;;;;;;-139.48;100.00;61774.03;5034299;28;20068;-74
2022/02/10 01:38:01;;;;;;;14.45;9.48;;;;;;;-139.48;100.00;61774.03;5034204;28;20056;-74
2022/02/10 01:41:50;;;;;;;24.35;11.48;;;;;;;-139.48;100.00;61774.03;5019914;28;20132;-74
2022/02/10 02:05:39;;;;;;;24.08;14.45;;;;;;;-139.48;100.00;61774.03;5033757;28;20083;-74
2022/02/10 02:08:26;;;;;;;22.52;13.80;;;;;;;-139.48;100.00;61774.03;5033514;28;20072;-74
2022/02/10 02:11:10;;;;;;;23.35;14.23;;;;;;;-139.48;100.00;61774.03;5034631;28;20504;-74
2022/02/10 02:13:54;;;;;;;;;;;;;;;-139.48;100.00;61774.03;5035008;28;20048;-74
2022/02/10 02:16:46;;;;;;;12.50;7.82;;;;;;;-139.48;100.00;61774.03;5019470;28;19920;-74
2022/02/10 02:19:32;;;;;;;23.95;13.25;;;;;;;-139.48;100.00;61774.03;5034467;28;20044;-74
2022/02/10 02:22:18;;;;;;;19.23;12.18;;;;;;;-139.48;100.00;61774.03;5033437;28;20147;-74
2022/02/10 02:25:02;;;;;;;22.40;12.73;;;;;;;-139.48;100.00;61774.03;5034410;28;20516;-74
2022/02/10 02:27:50;;;;;;;21.20;13.77;;;;;;;-139.48;100.00;61774.03;5034272;28;20049;-74
2022/02/10 02:30:49;;;;;;;19.75;12.52;;;;;;;-139.48;100.00;61774.03;5046921;28;20044;-74
2022/02/10 03:09:20;;;;;;;19.67;11.20;;;;;;;-139.48;100.00;61774.03;5033573;28;20192;-74
2022/02/10 03:12:04;;;;;;;21.33;12.73;;;;;;;-139.48;100.00;61774.03;5032865;28;20405;-74
2022/02/10 03:14:52;;;;;;;24.15;13.07;;;;;;;-139.48;100.00;61774.03;5033426;28;20052;-74
2022/02/10 04:21:09;;;;;;;15.55;6.82;;;;;;;-139.48;100.00;61774.03;5021746;28;20508;-72
2022/02/10 04:27:27;;;;;;;11.35;6.50;;;;;;;-139.48;100.00;61774.03;4947694;29;20058;-73
2022/02/10 04:42:59;;;;;;;13.80;6.65;;;;;;;-139.48;100.00;61774.03;5023963;28;20099;-73
2022/02/10 05:00:33;;;;;;;15.15;7.55;;;;;;;-139.48;100.00;61774.03;5035961;28;20143;-74
2022/02/10 05:24:42;;;;;;;10.88;7.07;;;;;;;-139.48;100.00;61774.03;5035942;28;20092;-74
2022/02/10 05:33:44;;;;;;;13.68;7.47;;;;;;;-139.48;100.00;61774.03;5022824;28;20087;-73
2022/02/10 05:36:32;;;;;;;12.93;7.05;;;;;;;-139.48;100.00;61774.03;5035676;28;20452;-74
2022/02/10 05:39:21;;;;;;;12.65;6.30;;;;;;;-139.48;100.00;61774.03;5020712;28;20048;-73
2022/02/10 05:42:35;;;;;;;13.32;6.85;;;;;;;-139.48;100.00;61774.03;5019998;28;20493;-73
2022/02/10 05:45:23;;;;;;;15.98;7.15;;;;;;;-139.48;100.00;61774.03;5035837;28;20052;-72
2022/02/10 05:48:34;;;;;;;8.82;6.38;;;;;;;-139.48;100.00;61774.03;5035362;28;20119;-73
2022/02/10 07:06:37;;;;;;;9.50;6.25;;;;;;;-139.48;100.00;61774.03;5033297;28;20091;-74
2022/02/10 07:49:07;;;;;;;8.13;5.25;;;;;;;-139.48;100.00;61774.03;5032743;28;20516;-74
2022/02/10 07:58:33;;;;;;;10.45;5.32;;;;;;;-139.48;100.00;61774.03;5020467;28;20048;-74
2022/02/10 09:04:22;;;;;;;11.73;5.57;;;;;;;-139.48;100.00;61774.03;5034122;28;20057;-73
2022/02/10 09:13:01;;;;;;;10.27;5.72;;;;;;;-139.48;100.00;61774.03;5035883;28;20076;-74
2022/02/10 09:50:01;;;;;;;10.88;6.15;;;;;;;-139.48;100.00;61774.03;5034873;28;20053;-72
2022/02/10 09:58:00;;;;;;;13.18;6.15;;;;;;;-139.48;100.00;61774.03;5022766;28;20126;-73
2022/02/10 10:01:03;;;;;;;11.75;6.07;;;;;;;-139.48;100.00;61774.03;5019823;28;20099;-73
2022/02/10 10:04:08;;;;;;;11.80;6.18;;;;;;;-139.48;100.00;61774.03;5019866;28;20052;-73
2022/02/10 10:13:04;;;;;;;;;;;;;;;-139.48;100.00;61774.03;5019727;28;20091;-73
2022/02/10 10:24:53;;;;;;;10.55;6.53;;;;;;;-139.48;100.00;61774.03;5034563;28;20056;-73
2022/02/10 10:50:07;;;;;;;13.18;8.23;;;;;;;-139.48;100.00;61774.03;5021758;28;20052;-73
2022/02/10 10:58:47;;;;;;;11.98;7.10;;;;;;;-139.48;100.00;61774.03;5033816;28;20136;-73
2022/02/10 11:38:21;;;;;;;11.52;5.88;;;;;;;-139.48;100.00;61774.03;5032859;28;20052;-73
2022/02/10 11:41:29;;;;;;;13.57;5.97;;;;;;;-139.48;100.00;61774.03;5033094;28;20146;-73
2022/02/10 12:37:45;;;;;;;9.63;5.45;;;;;;;-139.48;100.00;61774.03;5020035;28;20119;-73
2022/02/10 13:24:33;;;;;;;9.25;5.43;;;;;;;-139.48;100.00;61774.03;5023282;28;20404;-72
2022/02/10 14:18:32;;;;;;;9.32;5.50;;;;;;;-139.48;100.00;61774.03;5035096;28;20099;-72
2022/02/10 14:21:21;;;;;;;7.93;4.32;;;;;;;-139.48;100.00;61774.03;5034426;28;20051;-73
2022/02/10 14:27:08;;;;;;;11.68;5.50;;;;;;;-139.48;100.00;61774.03;5021962;28;20099;-74
2022/02/10 14:29:52;;;;;;;10.68;4.95;;;;;;;-139.48;100.00;61774.03;5034601;28;20464;-74
2022/02/10 14:32:41;;;;;;;8.63;4.70;;;;;;;-139.48;100.00;61774.03;5005468;28;20385;-74
2022/02/10 14:35:35;;;;;;;8.02;5.18;;;;;;;-139.48;100.00;61774.03;5019005;28;20201;-74
2022/02/10 15:11:38;;;;;;;9.48;5.53;;;;;;;-139.48;100.00;61774.03;5033628;28;20546;-73
2022/02/10 16:10:59;;;;;;;10.75;6.20;;;;;;;-139.48;100.00;61774.03;5013002;28;20046;-74
2022/02/10 16:16:54;;;;;;;8.95;5.57;;;;;;;-139.48;100.00;61774.03;5017267;28;20087;-74
2022/02/10 16:19:38;;;;;;;10.35;5.75;;;;;;;-139.48;100.00;61774.03;5002102;28;20044;-74
2022/02/10 16:22:25;;;;;;;;;;;;;;;-139.48;100.00;61774.03;4988624;28;20096;-74
2022/02/10 16:25:10;;;;;;;9.90;6.25;;;;;;;-139.48;100.00;61774.03;5017224;28;20320;-74
2022/02/10 16:28:08;;;;;;;11.68;6.18;;;;;;;-139.48;100.00;61774.03;5002431;28;20413;-74
2022/02/10 16:30:53;;;;;;;10.23;5.85;;;;;;;-139.48;100.00;61774.03;5004103;28;20068;-75
2022/02/10 16:33:38;;;;;;;10.45;6.28;;;;;;;-139.48;100.00;61774.03;5016113;28;20060;-74
2022/02/10 16:36:28;;;;;;;9.23;5.68;;;;;;;-139.48;100.00;61774.03;4988228;28;20195;-74
2022/02/10 16:39:16;;;;;;;10.52;5.78;;;;;;;-139.48;100.00;61774.03;5016803;28;20100;-74
2022/02/10 16:42:05;;;;;;;12.70;6.55;;;;;;;-139.48;100.00;61774.03;5016608;28;20096;-74
2022/02/10 16:44:51;;;;;;;9.35;5.90;;;;;;;-139.48;100.00;61774.03;5016668;28;20052;-74
2022/02/10 16:47:35;;;;;;;13.23;6.18;;;;;;;-139.48;100.00;61774.03;5016300;28;20084;-75
2022/02/10 16:50:20;;;;;;;9.40;5.50;;;;;;;-139.48;100.00;61774.03;5002104;28;20099;-74
2022/02/10 16:53:09;;;;;;;11.32;5.72;;;;;;;-139.48;100.00;61774.03;5001603;28;20489;-74
2022/02/10 16:56:02;;;;;;;10.43;5.75;;;;;;;-139.48;100.00;61774.03;5002289;28;20049;-75
2022/02/10 16:59:07;;;;;;;10.88;5.70;;;;;;;-139.48;100.00;61774.03;5016590;28;20411;-74
2022/02/10 17:02:44;;;;;;;10.32;5.43;;;;;;;-139.48;100.00;61774.03;5016385;28;20045;-75
2022/02/10 17:26:06;;;;;;;9.85;5.85;;;;;;;-139.48;100.00;61774.03;5015487;28;20044;-74
2022/02/10 17:28:51;;;;;;;10.82;5.70;;;;;;;-139.48;100.00;61774.03;5002899;28;20045;-74
2022/02/10 17:46:22;;;;;;;6.82;4.57;;;;;;;-139.48;100.00;61774.03;5015465;28;20500;-74
2022/02/10 17:52:14;;;;;;;9.02;4.95;;;;;;;-139.48;100.00;61774.03;5003371;28;20044;-74
2022/02/10 17:54:58;;;;;;;6.72;4.63;;;;;;;-139.48;100.00;61774.03;5000937;28;20048;-74
2022/02/10 17:57:42;;;;;;;10.13;4.72;;;;;;;-139.48;100.00;61774.03;5000216;28;20567;-74
2022/02/10 18:00:26;;;;;;;8.27;5.03;;;;;;;-139.48;100.00;61774.03;5015463;28;20044;-73
2022/02/10 18:03:10;;;;;;;9.93;4.57;;;;;;;-139.48;100.00;61774.03;5000619;28;20044;-74
2022/02/10 18:09:22;;;;;;;10.85;4.80;;;;;;;-139.48;100.00;61774.03;5002375;28;20056;-73
2022/02/10 18:15:08;;;;;;;6.90;4.70;;;;;;;-139.48;100.00;61774.03;5001817;28;20472;-75
2022/02/10 18:18:00;;;;;;;9.50;5.25;;;;;;;-139.48;100.00;61774.03;5000991;28;20057;-74
2022/02/10 18:20:51;;;;;;;8.73;4.90;;;;;;;-139.48;100.00;61774.03;5014766;28;20148;-75
2022/02/10 18:23:59;;;;;;;7.95;4.60;;;;;;;-139.48;100.00;61774.03;5000813;28;20055;-74
2022/02/10 19:08:18;;;;;;;10.52;5.20;;;;;;;-139.48;100.00;61774.03;5013898;28;20044;-74
2022/02/10 19:11:07;;;;;;;8.30;5.03;;;;;;;-139.48;100.00;61774.03;5000141;28;20049;-75
2022/02/10 19:13:54;;;;;;;10.23;5.13;;;;;;;-139.48;100.00;61774.03;4999671;28;20045;-75
2022/02/10 19:16:38;;;;;;;8.20;4.90;;;;;;;-139.48;100.00;61774.03;5013520;28;20048;-75
2022/02/10 19:19:22;;;;;;;;;;;;;;;-139.48;100.00;61774.03;4999015;28;20057;-75
2022/02/10 19:22:06;;;;;;;7.87;5.73;;;;;;;-139.48;100.00;61774.03;4998684;28;19948;-75
2022/02/10 19:24:50;;;;;;;6.90;4.85;;;;;;;-139.48;100.00;61774.03;5012457;28;20659;-75
2022/02/10 19:27:37;;;;;;;7.78;5.68;;;;;;;-139.48;100.00;61774.03;5013327;28;20187;-75
2022/02/10 19:30:23;;;;;;;8.35;5.57;;;;;;;-139.48;100.00;61774.03;5013092;28;20052;-75
2022/02/10 19:33:12;;;;;;;9.65;6.30;;;;;;;-139.48;100.00;61774.03;4998518;28;20507;-74
2022/02/10 19:35:56;;;;;;;7.97;5.90;;;;;;;-139.48;100.00;61774.03;4998916;28;20052;-74
2022/02/10 19:38:39;;;;;;;11.32;5.82;;;;;;;-139.48;100.00;61774.03;5013363;28;20196;-74
2022/02/10 19:41:30;;;;;;;9.35;4.63;;;;;;;-139.48;100.00;61774.03;4998170;28;20560;-74
2022/02/10 19:44:15;;;;;;;9.43;5.28;;;;;;;-139.48;100.00;61774.03;5013343;28;20117;-74
2022/02/10 19:47:03;;;;;;;9.68;4.88;;;;;;;-139.48;100.00;61774.03;5013105;28;20563;-74
2022/02/10 19:49:47;;;;;;;10.23;6.00;;;;;;;-139.48;100.00;61774.03;5013368;28;20049;-74
2022/02/10 19:52:32;;;;;;;8.15;5.32;;;;;;;-139.48;100.00;61774.03;5013133;28;20052;-74
2022/02/10 19:55:22;;;;;;;7.22;4.85;;;;;;;-139.48;100.00;61774.03;4984808;28;20052;-74
2022/02/10 19:58:09;;;;;;;5.82;4.15;;;;;;;-139.48;100.00;61774.03;4998562;28;20103;-74
2022/02/10 20:00:57;;;;;;;7.82;5.00;;;;;;;-139.48;100.00;61774.03;5012782;28;20100;-74
2022/02/10 20:03:41;;;;;;;7.88;4.97;;;;;;;-139.48;100.00;61774.03;5012882;28;20060;-74
2022/02/10 20:06:25;;;;;;;8.15;4.75;;;;;;;-139.48;100.00;61774.03;4998343;28;20147;-74
2022/02/10 20:09:09;;;;;;;7.10;4.78;;;;;;;-139.48;100.00;61774.03;4998072;28;20084;-74
2022/02/10 20:11:55;;;;;;;9.32;6.30;;;;;;;-139.48;100.00;61774.03;4998229;28;20095;-74
2022/02/10 20:14:39;;;;;;;8.80;5.70;;;;;;;-139.48;100.00;61774.03;5012772;28;20088;-74
2022/02/10 20:17:23;;;;;;;10.68;5.07;;;;;;;-139.48;100.00;61774.03;5012947;28;20157;-73
2022/02/10 20:20:08;;;;;;;;;;;;;;;-139.48;100.00;61774.03;4984774;28;20053;-74
2022/02/10 20:22:52;;;;;;;10.07;6.10;;;;;;;-139.48;100.00;61774.03;4997962;28;19925;-74
2022/02/10 20:25:37;;;;;;;9.63;6.13;;;;;;;-139.48;100.00;61774.03;5012877;28;20405;-74
2022/02/10 20:28:22;;;;;;;8.07;5.60;;;;;;;-139.48;100.00;61774.03;4984351;28;20065;-74
2022/02/10 20:31:08;;;;;;;13.07;6.30;;;;;;;-139.48;100.00;61774.03;5012822;28;20053;-74
2022/02/10 20:33:52;;;;;;;11.43;5.93;;;;;;;-139.48;100.00;61774.03;4998130;28;20200;-74
2022/02/10 20:36:37;;;;;;;11.38;6.50;;;;;;;-139.48;100.00;61774.03;5012651;28;20111;-74
2022/02/10 20:39:25;;;;;;;10.65;6.32;;;;;;;-139.48;100.00;61774.03;4998011;28;20044;-74
2022/02/10 20:42:16;;;;;;;10.63;6.57;;;;;;;-139.48;100.00;61774.03;5012191;28;20214;-74
2022/02/10 20:45:00;;;;;;;10.75;6.10;;;;;;;-139.48;100.00;61774.03;5012431;28;20422;-74
2022/02/10 20:47:44;;;;;;;9.90;6.32;;;;;;;-139.48;100.00;61774.03;5012423;28;20100;-74
2022/02/10 20:50:28;;;;;;;12.93;6.68;;;;;;;-139.48;100.00;61774.03;5012631;28;20052;-74
2022/02/10 20:53:12;;;;;;;14.27;6.88;;;;;;;-139.48;100.00;61774.03;5012556;28;20133;-74
2022/02/10 20:55:57;;;;;;;;;;;;;;;-139.48;100.00;61774.03;5012455;28;20052;-74
2022/02/10 20:58:41;;;;;;;;;;;;;;;-139.48;100.00;61774.03;4998188;28;19920;-74
2022/02/10 21:01:26;;;;;;;13.95;6.78;;;;;;;-139.48;100.00;61774.03;5001205;28;20269;-74
2022/02/10 21:04:10;;;;;;;13.13;6.63;;;;;;;-139.48;100.00;61774.03;5015964;28;20049;-74
2022/02/10 21:07:00;;;;;;;15.38;6.97;;;;;;;-139.48;100.00;61774.03;5000882;28;20052;-74
2022/02/10 21:12:36;;;;;;;9.68;6.43;;;;;;;-139.48;100.00;61774.03;5001621;28;20073;-74
2022/02/10 21:15:27;;;;;;;12.15;6.72;;;;;;;-139.48;100.00;61774.03;5016096;28;20104;-74
2022/02/10 21:18:13;;;;;;;9.52;5.70;;;;;;;-139.48;100.00;61774.03;5015911;28;20119;-74
2022/02/10 21:21:04;;;;;;;10.60;5.65;;;;;;;-139.48;100.00;61774.03;5000801;28;20115;-74
2022/02/10 21:24:01;;;;;;;10.23;6.28;;;;;;;-139.48;100.00;61774.03;5002058;28;20061;-74
2022/02/10 21:27:06;;;;;;;11.10;6.07;;;;;;;-139.48;100.00;61774.03;5015350;28;20080;-74
2022/02/10 21:29:55;;;;;;;12.27;6.68;;;;;;;-139.48;100.00;61774.03;5015857;28;20073;-75
2022/02/10 21:32:49;;;;;;;13.07;6.53;;;;;;;-139.48;100.00;61774.03;5001568;28;20505;-74
2022/02/10 21:38:30;;;;;;;8.85;5.97;;;;;;;-139.48;100.00;61774.03;5002399;28;20196;-74
2022/02/10 21:42:10;;;;;;;9.82;6.78;;;;;;;-139.48;100.00;61774.03;5014058;28;20525;-74
2022/02/10 21:47:45;;;;;;;11.55;6.28;;;;;;;-139.48;100.00;61774.03;5001894;28;20048;-74
2022/02/10 22:09:00;;;;;;;9.98;6.15;;;;;;;-139.48;100.00;61774.03;5002494;28;20572;-75
2022/02/10 22:20:48;;;;;;;10.82;6.80;;;;;;;-139.48;100.00;61774.03;5001125;28;20529;-75
2022/02/10 22:23:35;;;;;;;14.25;6.97;;;;;;;-139.48;100.00;61774.03;5014632;28;20088;-75
2022/02/10 22:26:31;;;;;;;9.82;6.60;;;;;;;-139.48;100.00;61774.03;5000051;28;20060;-75
2022/02/10 22:29:21;;;;;;;11.77;6.85;;;;;;;-139.48;100.00;61774.03;5014735;28;20049;-75
2022/02/10 22:35:16;;;;;;;10.60;6.38;;;;;;;-139.48;100.00;61774.03;4999036;28;20096;-75
2022/02/10 22:38:00;;;;;;;11.48;6.25;;;;;;;-139.48;100.00;61774.03;5014210;28;20422;-75
2022/02/10 22:41:03;;;;;;;11.07;6.45;;;;;;;-139.48;100.00;61774.03;5014203;28;20513;-75
2022/02/10 22:43:49;;;;;;;12.10;7.10;;;;;;;-139.48;100.00;61774.03;4999331;28;20131;-75
2022/02/10 22:46:34;;;;;;;11.73;6.53;;;;;;;-139.48;100.00;61774.03;4999253;28;20065;-75
2022/02/10 22:49:18;;;;;;;10.43;6.20;;;;;;;-139.48;100.00;61774.03;5014337;28;20053;-75
2022/02/10 22:52:03;;;;;;;14.02;7.10;;;;;;;-139.48;100.00;61774.03;5014351;28;20048;-74
2022/02/10 22:54:47;;;;;;;10.13;6.70;;;;;;;-139.48;100.00;61774.03;4999132;28;20048;-75
2022/02/10 22:57:31;;;;;;;10.40;6.88;;;;;;;-139.48;100.00;61774.03;5013982;28;20515;-75
2022/02/10 23:00:28;;;;;;;11.05;7.72;;;;;;;-139.48;100.00;61774.03;4999137;28;20559;-75
2022/02/10 23:03:16;;;;;;;17.23;7.25;;;;;;;-139.48;100.00;61774.03;4998850;28;20390;-75
2022/02/10 23:06:00;;;;;;;12.23;7.38;;;;;;;-139.48;100.00;61774.03;4998638;28;20053;-74
2022/02/10 23:08:44;;;;;;;12.35;7.45;;;;;;;-139.48;100.00;61774.03;5014010;28;20049;-74
2022/02/10 23:11:29;;;;;;;10.68;7.15;;;;;;;-139.48;100.00;61774.03;4998620;28;20052;-75
2022/02/10 23:14:14;;;;;;;11.60;7.03;;;;;;;-139.48;100.00;61774.03;5013594;28;20052;-74
2022/02/10 23:16:59;;;;;;;13.00;6.82;;;;;;;-139.48;100.00;61774.03;4998705;28;20052;-75
2022/02/10 23:19:43;;;;;;;11.45;7.00;;;;;;;-139.48;100.00;61774.03;4999171;28;20056;-74
2022/02/10 23:22:27;;;;;;;10.77;7.00;;;;;;;-139.48;100.00;61774.03;4998326;28;20576;-74
2022/02/10 23:25:10;;;;;;;14.20;6.97;;;;;;;-139.48;100.00;61774.03;4998549;28;20053;-74
2022/02/10 23:27:54;;;;;;;11.15;6.38;;;;;;;-139.48;100.00;61774.03;4998506;28;20049;-75
2022/02/10 23:30:40;;;;;;;10.57;6.38;;;;;;;-139.48;100.00;61774.03;4998922;28;20052;-74
2022/02/10 23:33:28;;;;;;;9.00;6.15;;;;;;;-139.48;100.00;61774.03;4984650;28;20104;-75
2022/02/10 23:39:04;;;;;;;9.32;5.78;;;;;;;-139.48;100.00;61774.03;4998740;28;20111;-75
2022/02/10 23:44:50;;;;;;;11.00;5.85;;;;;;;-139.48;100.00;61774.03;4999994;28;20099;-74
2022/02/10 23:47:34;;;;;;;9.55;6.18;;;;;;;-139.48;100.00;61774.03;4985278;28;20052;-74
2022/02/10 23:50:24;;;;;;;11.32;5.88;;;;;;;-139.48;100.00;61774.03;4998399;28;20045;-74
2022/02/10 23:53:07;;;;;;;8.57;6.30;;;;;;;-139.48;100.00;61774.03;4999330;28;20485;-75
2022/02/10 23:55:51;;;;;;;10.27;5.93;;;;;;;-139.48;100.00;61774.03;5013265;28;20476;-75
